sensor_id;sensor_type;location;lat;lon;timestamp;pressure;altitude;pressure_sealevel;temperature;humidity
38466;BME280;24244;51.950;5.902;2023-04-07T00:00:12;101308.53;;;9.78;79.79
38466;BME280;24244;51.950;5.902;2023-04-07T00:02:39;101308.69;;;9.77;79.72
38466;BME280;24244;51.950;5.902;2023-04-07T00:05:10;101310.34;;;9.78;80.01
38466;BME280;24244;51.950;5.902;2023-04-07T00:07:37;101307.69;;;9.78;79.89
38466;BME280;24244;51.950;5.902;2023-04-07T00:10:18;101313.66;;;9.80;79.91
38466;BME280;24244;51.950;5.902;2023-04-07T00:12:45;101315.31;;;9.81;80.04
38466;BME280;24244;51.950;5.902;2023-04-07T00:15:14;101310.81;;;9.81;79.99
38466;BME280;24244;51.950;5.902;2023-04-07T00:17:41;101314.47;;;9.80;79.79
38466;BME280;24244;51.950;5.902;2023-04-07T00:20:08;101319.63;;;9.82;80.07
38466;BME280;24244;51.950;5.902;2023-04-07T00:22:35;101316.13;;;9.81;80.13
38466;BME280;24244;51.950;5.902;2023-04-07T00:25:02;101324.09;;;9.81;80.34
38466;BME280;24244;51.950;5.902;2023-04-07T00:27:29;101321.28;;;9.83;80.03
38466;BME280;24244;51.950;5.902;2023-04-07T00:29:56;101312.47;;;9.82;80.06
38466;BME280;24244;51.950;5.902;2023-04-07T00:32:25;101319.47;;;9.83;80.21
38466;BME280;24244;51.950;5.902;2023-04-07T00:34:52;101326.44;;;9.85;80.02
38466;BME280;24244;51.950;5.902;2023-04-07T00:37:19;101330.06;;;9.83;80.37
38466;BME280;24244;51.950;5.902;2023-04-07T00:39:46;101327.41;;;9.83;80.43
38466;BME280;24244;51.950;5.902;2023-04-07T00:42:13;101327.41;;;9.83;80.43
38466;BME280;24244;51.950;5.902;2023-04-07T00:44:40;101321.94;;;9.85;80.51
38466;BME280;24244;51.950;5.902;2023-04-07T00:47:07;101321.94;;;9.85;80.33
38466;BME280;24244;51.950;5.902;2023-04-07T00:49:36;101328.09;;;9.86;80.50
38466;BME280;24244;51.950;5.902;2023-04-07T00:52:04;101325.44;;;9.86;80.56
38466;BME280;24244;51.950;5.902;2023-04-07T00:54:41;101328.94;;;9.86;80.64
38466;BME280;24244;51.950;5.902;2023-04-07T00:57:10;101326.06;;;9.88;80.36
38466;BME280;24244;51.950;5.902;2023-04-07T00:59:37;101319.13;;;9.87;80.66
38466;BME280;24244;51.950;5.902;2023-04-07T01:02:09;101315.66;;;9.86;80.56
38466;BME280;24244;51.950;5.902;2023-04-07T01:04:43;101314.81;;;9.86;80.54
38466;BME280;24244;51.950;5.902;2023-04-07T01:07:16;101310.50;;;9.85;80.82
38466;BME280;24244;51.950;5.902;2023-04-07T01:09:47;101317.63;;;9.84;80.74
38466;BME280;24244;51.950;5.902;2023-04-07T01:12:23;101315.13;;;9.82;80.72
38466;BME280;24244;51.950;5.902;2023-04-07T01:14:56;101319.78;;;9.80;80.88
38466;BME280;24244;51.950;5.902;2023-04-07T01:17:25;101319.13;;;9.78;81.04
38466;BME280;24244;51.950;5.902;2023-04-07T01:19:58;101328.25;;;9.76;81.03
38466;BME280;24244;51.950;5.902;2023-04-07T01:22:32;101324.09;;;9.73;80.93
38466;BME280;24244;51.950;5.902;2023-04-07T01:25:10;101323.28;;;9.73;81.08
38466;BME280;24244;51.950;5.902;2023-04-07T01:27:48;101324.09;;;9.73;80.81
38466;BME280;24244;51.950;5.902;2023-04-07T01:30:21;101320.81;;;9.71;80.98
38466;BME280;24244;51.950;5.902;2023-04-07T01:32:52;101314.81;;;9.69;80.78
38466;BME280;24244;51.950;5.902;2023-04-07T01:35:20;101315.97;;;9.67;81.07
38466;BME280;24244;51.950;5.902;2023-04-07T01:37:51;101317.78;;;9.66;81.40
38466;BME280;24244;51.950;5.902;2023-04-07T01:40:20;101330.91;;;9.68;81.22
38466;BME280;24244;51.950;5.902;2023-04-07T01:42:50;101334.41;;;9.68;81.10
38466;BME280;24244;51.950;5.902;2023-04-07T01:45:21;101332.56;;;9.69;81.23
38466;BME280;24244;51.950;5.902;2023-04-07T01:47:52;101328.94;;;9.70;81.31
38466;BME280;24244;51.950;5.902;2023-04-07T01:50:21;101333.41;;;9.69;81.04
38466;BME280;24244;51.950;5.902;2023-04-07T01:52:48;101329.75;;;9.70;80.99
38466;BME280;24244;51.950;5.902;2023-04-07T01:55:15;101332.41;;;9.70;81.01
38466;BME280;24244;51.950;5.902;2023-04-07T01:57:42;101338.72;;;9.69;81.11
38466;BME280;24244;51.950;5.902;2023-04-07T02:00:10;101335.38;;;9.67;81.25
38466;BME280;24244;51.950;5.902;2023-04-07T02:02:48;101329.09;;;9.68;81.27
38466;BME280;24244;51.950;5.902;2023-04-07T02:05:20;101331.75;;;9.68;81.29
38466;BME280;24244;51.950;5.902;2023-04-07T02:07:51;101328.41;;;9.66;81.09
38466;BME280;24244;51.950;5.902;2023-04-07T02:10:22;101330.28;;;9.66;81.25
38466;BME280;24244;51.950;5.902;2023-04-07T02:12:50;101333.72;;;9.66;81.46
38466;BME280;24244;51.950;5.902;2023-04-07T02:15:18;101334.56;;;9.67;81.22
38466;BME280;24244;51.950;5.902;2023-04-07T02:17:52;101342.53;;;9.67;80.99
38466;BME280;24244;51.950;5.902;2023-04-07T02:20:20;101343.34;;;9.67;80.98
38466;BME280;24244;51.950;5.902;2023-04-07T02:22:48;101341.03;;;9.64;81.30
38466;BME280;24244;51.950;5.902;2023-04-07T02:25:23;101345.38;;;9.65;81.03
38466;BME280;24244;51.950;5.902;2023-04-07T02:27:52;101350.00;;;9.63;81.08
38466;BME280;24244;51.950;5.902;2023-04-07T02:30:19;101345.69;;;9.62;81.04
38466;BME280;24244;51.950;5.902;2023-04-07T02:32:48;101344.84;;;9.62;81.37
38466;BME280;24244;51.950;5.902;2023-04-07T02:35:15;101344.69;;;9.63;81.08
38466;BME280;24244;51.950;5.902;2023-04-07T02:37:51;101343.03;;;9.62;81.10
38466;BME280;24244;51.950;5.902;2023-04-07T02:40:18;101339.88;;;9.59;81.25
38466;BME280;24244;51.950;5.902;2023-04-07T02:42:46;101348.00;;;9.57;80.98
38466;BME280;24244;51.950;5.902;2023-04-07T02:45:18;101340.03;;;9.57;81.30
38466;BME280;24244;51.950;5.902;2023-04-07T02:47:51;101346.19;;;9.58;81.43
38466;BME280;24244;51.950;5.902;2023-04-07T02:50:21;101345.50;;;9.56;81.14
38466;BME280;24244;51.950;5.902;2023-04-07T02:52:51;101351.66;;;9.56;81.04
38466;BME280;24244;51.950;5.902;2023-04-07T02:55:18;101349.84;;;9.57;81.15
38466;BME280;24244;51.950;5.902;2023-04-07T02:57:45;101350.81;;;9.56;81.44
38466;BME280;24244;51.950;5.902;2023-04-07T03:00:14;101348.84;;;9.58;81.31
38466;BME280;24244;51.950;5.902;2023-04-07T03:02:43;101357.63;;;9.58;81.30
38466;BME280;24244;51.950;5.902;2023-04-07T03:05:12;101363.78;;;9.59;81.02
38466;BME280;24244;51.950;5.902;2023-04-07T03:07:39;101366.25;;;9.60;81.14
38466;BME280;24244;51.950;5.902;2023-04-07T03:10:06;101359.94;;;9.61;81.26
38466;BME280;24244;51.950;5.902;2023-04-07T03:12:33;101369.72;;;9.61;80.99
38466;BME280;24244;51.950;5.902;2023-04-07T03:15:00;101371.38;;;9.62;81.31
38466;BME280;24244;51.950;5.902;2023-04-07T03:17:28;101363.59;;;9.60;81.29
38466;BME280;24244;51.950;5.902;2023-04-07T03:19:55;101366.25;;;9.60;81.11
38466;BME280;24244;51.950;5.902;2023-04-07T03:22:24;101366.25;;;9.60;81.06
38466;BME280;24244;51.950;5.902;2023-04-07T03:24:51;101360.94;;;9.60;81.26
38466;BME280;24244;51.950;5.902;2023-04-07T03:27:19;101361.91;;;9.59;80.89
38466;BME280;24244;51.950;5.902;2023-04-07T03:29:46;101368.25;;;9.58;81.21
38466;BME280;24244;51.950;5.902;2023-04-07T03:32:15;101355.13;;;9.57;81.44
38466;BME280;24244;51.950;5.902;2023-04-07T03:34:42;101362.94;;;9.58;81.32
38466;BME280;24244;51.950;5.902;2023-04-07T03:37:11;101362.94;;;9.58;81.20
38466;BME280;24244;51.950;5.902;2023-04-07T03:39:39;101358.63;;;9.57;80.96
38466;BME280;24244;51.950;5.902;2023-04-07T03:42:06;101363.94;;;9.57;81.13
38466;BME280;24244;51.950;5.902;2023-04-07T03:44:33;101354.16;;;9.58;81.17
38466;BME280;24244;51.950;5.902;2023-04-07T03:47:00;101359.47;;;9.58;81.26
38466;BME280;24244;51.950;5.902;2023-04-07T03:49:28;101360.44;;;9.57;81.38
38466;BME280;24244;51.950;5.902;2023-04-07T03:51:54;101357.44;;;9.60;81.35
38466;BME280;24244;51.950;5.902;2023-04-07T03:54:21;101361.75;;;9.61;81.08
38466;BME280;24244;51.950;5.902;2023-04-07T03:56:50;101370.41;;;9.63;81.05
38466;BME280;24244;51.950;5.902;2023-04-07T03:59:17;101369.41;;;9.64;81.22
38466;BME280;24244;51.950;5.902;2023-04-07T04:01:45;101365.75;;;9.65;81.01
38466;BME280;24244;51.950;5.902;2023-04-07T04:04:12;101366.59;;;9.65;80.98
38466;BME280;24244;51.950;5.902;2023-04-07T04:06:39;101373.72;;;9.65;81.16
38466;BME280;24244;51.950;5.902;2023-04-07T04:09:06;101368.41;;;9.65;80.87
38466;BME280;24244;51.950;5.902;2023-04-07T04:11:37;101380.69;;;9.66;81.01
38466;BME280;24244;51.950;5.902;2023-04-07T04:14:10;101376.38;;;9.65;80.98
38466;BME280;24244;51.950;5.902;2023-04-07T04:16:37;101373.72;;;9.65;80.86
38466;BME280;24244;51.950;5.902;2023-04-07T04:19:04;101385.19;;;9.65;80.79
38466;BME280;24244;51.950;5.902;2023-04-07T04:21:33;101377.38;;;9.64;81.06
38466;BME280;24244;51.950;5.902;2023-04-07T04:24:00;101376.03;;;9.60;81.13
38466;BME280;24244;51.950;5.902;2023-04-07T04:26:27;101382.16;;;9.60;81.25
38466;BME280;24244;51.950;5.902;2023-04-07T04:28:55;101380.50;;;9.59;81.25
38466;BME280;24244;51.950;5.902;2023-04-07T04:31:23;101379.69;;;9.59;81.51
38466;BME280;24244;51.950;5.902;2023-04-07T04:33:51;101383.16;;;9.59;81.40
38466;BME280;24244;51.950;5.902;2023-04-07T04:36:18;101387.31;;;9.62;81.14
38466;BME280;24244;51.950;5.902;2023-04-07T04:38:45;101385.50;;;9.62;80.89
38466;BME280;24244;51.950;5.902;2023-04-07T04:41:15;101385.50;;;9.62;81.29
38466;BME280;24244;51.950;5.902;2023-04-07T04:43:42;101392.47;;;9.63;81.40
38466;BME280;24244;51.950;5.902;2023-04-07T04:46:09;101386.31;;;9.63;81.20
38466;BME280;24244;51.950;5.902;2023-04-07T04:48:38;101389.81;;;9.63;81.19
38466;BME280;24244;51.950;5.902;2023-04-07T04:51:06;101390.81;;;9.62;81.14
38466;BME280;24244;51.950;5.902;2023-04-07T04:53:33;101402.25;;;9.63;81.23
38466;BME280;24244;51.950;5.902;2023-04-07T04:56:00;101403.09;;;9.63;81.28
38466;BME280;24244;51.950;5.902;2023-04-07T04:58:27;101402.09;;;9.64;81.13
38466;BME280;24244;51.950;5.902;2023-04-07T05:00:54;101405.59;;;9.65;81.36
38466;BME280;24244;51.950;5.902;2023-04-07T05:03:26;101405.38;;;9.66;81.14
38466;BME280;24244;51.950;5.902;2023-04-07T05:05:55;101410.88;;;9.65;80.91
38466;BME280;24244;51.950;5.902;2023-04-07T05:08:22;101411.03;;;9.63;81.23
38466;BME280;24244;51.950;5.902;2023-04-07T05:10:48;101412.03;;;9.62;81.22
38466;BME280;24244;51.950;5.902;2023-04-07T05:13:15;101415.69;;;9.61;81.26
38466;BME280;24244;51.950;5.902;2023-04-07T05:15:43;101421.00;;;9.61;81.14
38466;BME280;24244;51.950;5.902;2023-04-07T05:18:10;101414.84;;;9.61;81.26
38466;BME280;24244;51.950;5.902;2023-04-07T05:20:47;101416.50;;;9.62;81.56
38466;BME280;24244;51.950;5.902;2023-04-07T05:23:15;101421.81;;;9.62;81.37
38466;BME280;24244;51.950;5.902;2023-04-07T05:25:42;101421.00;;;9.61;81.58
38466;BME280;24244;51.950;5.902;2023-04-07T05:28:09;101430.63;;;9.62;81.39
38466;BME280;24244;51.950;5.902;2023-04-07T05:30:36;101425.31;;;9.62;81.39
38466;BME280;24244;51.950;5.902;2023-04-07T05:33:05;101425.16;;;9.64;81.10
38466;BME280;24244;51.950;5.902;2023-04-07T05:35:38;101426.81;;;9.65;81.43
38466;BME280;24244;51.950;5.902;2023-04-07T05:38:05;101426.81;;;9.65;81.26
38466;BME280;24244;51.950;5.902;2023-04-07T05:40:33;101423.97;;;9.66;81.16
38466;BME280;24244;51.950;5.902;2023-04-07T05:43:03;101430.13;;;9.67;81.03
38466;BME280;24244;51.950;5.902;2023-04-07T05:45:29;101432.97;;;9.65;81.15
38466;BME280;24244;51.950;5.902;2023-04-07T05:47:56;101433.94;;;9.64;81.03
38466;BME280;24244;51.950;5.902;2023-04-07T05:50:23;101427.97;;;9.62;81.14
38466;BME280;24244;51.950;5.902;2023-04-07T05:52:51;101427.97;;;9.62;81.20
38466;BME280;24244;51.950;5.902;2023-04-07T05:55:18;101425.31;;;9.62;81.31
38466;BME280;24244;51.950;5.902;2023-04-07T05:57:46;101430.63;;;9.62;81.30
38466;BME280;24244;51.950;5.902;2023-04-07T06:00:14;101434.25;;;9.61;81.50
38466;BME280;24244;51.950;5.902;2023-04-07T06:02:40;101436.75;;;9.63;81.40
38466;BME280;24244;51.950;5.902;2023-04-07T06:05:08;101438.56;;;9.62;81.44
38466;BME280;24244;51.950;5.902;2023-04-07T06:07:35;101444.88;;;9.61;81.21
38466;BME280;24244;51.950;5.902;2023-04-07T06:10:02;101450.88;;;9.63;81.45
38466;BME280;24244;51.950;5.902;2023-04-07T06:12:29;101449.19;;;9.62;81.54
38466;BME280;24244;51.950;5.902;2023-04-07T06:14:57;101448.06;;;9.65;81.69
38466;BME280;24244;51.950;5.902;2023-04-07T06:17:24;101450.50;;;9.66;81.33
38466;BME280;24244;51.950;5.902;2023-04-07T06:19:51;101458.47;;;9.66;81.14
38466;BME280;24244;51.950;5.902;2023-04-07T06:22:17;101452.38;;;9.66;81.31
38466;BME280;24244;51.950;5.902;2023-04-07T06:24:47;101452.38;;;9.66;81.26
38466;BME280;24244;51.950;5.902;2023-04-07T06:27:14;101448.06;;;9.65;81.34
38466;BME280;24244;51.950;5.902;2023-04-07T06:29:41;101450.03;;;9.63;81.48
38466;BME280;24244;51.950;5.902;2023-04-07T06:32:10;101455.19;;;9.64;81.40
38466;BME280;24244;51.950;5.902;2023-04-07T06:34:36;101459.16;;;9.68;81.53
38466;BME280;24244;51.950;5.902;2023-04-07T06:37:03;101464.47;;;9.68;81.53
38466;BME280;24244;51.950;5.902;2023-04-07T06:39:31;101459.84;;;9.70;81.45
38466;BME280;24244;51.950;5.902;2023-04-07T06:41:58;101462.34;;;9.72;81.36
38466;BME280;24244;51.950;5.902;2023-04-07T06:44:24;101472.75;;;9.73;81.49
38466;BME280;24244;51.950;5.902;2023-04-07T06:46:51;101475.41;;;9.73;81.43
38466;BME280;24244;51.950;5.902;2023-04-07T06:49:22;101479.94;;;9.73;81.64
38466;BME280;24244;51.950;5.902;2023-04-07T06:51:49;101478.06;;;9.73;81.50
38466;BME280;24244;51.950;5.902;2023-04-07T06:54:16;101484.06;;;9.75;81.35
38466;BME280;24244;51.950;5.902;2023-04-07T06:56:45;101480.56;;;9.75;81.46
38466;BME280;24244;51.950;5.902;2023-04-07T06:59:14;101481.41;;;9.75;81.43
38466;BME280;24244;51.950;5.902;2023-04-07T07:01:41;101488.38;;;9.76;81.34
38466;BME280;24244;51.950;5.902;2023-04-07T07:04:09;101486.41;;;9.78;81.73
38466;BME280;24244;51.950;5.902;2023-04-07T07:06:37;101488.91;;;9.80;81.65
38466;BME280;24244;51.950;5.902;2023-04-07T07:09:04;101491.22;;;9.83;81.61
38466;BME280;24244;51.950;5.902;2023-04-07T07:11:33;101497.34;;;9.83;81.56
38466;BME280;24244;51.950;5.902;2023-04-07T07:14:00;101492.03;;;9.83;81.67
38466;BME280;24244;51.950;5.902;2023-04-07T07:16:27;101502.50;;;9.85;81.73
38466;BME280;24244;51.950;5.902;2023-04-07T07:18:54;101491.53;;;9.88;81.60
38466;BME280;24244;51.950;5.902;2023-04-07T07:21:21;101501.84;;;9.91;81.73
38466;BME280;24244;51.950;5.902;2023-04-07T07:23:50;101502.34;;;9.95;81.72
38466;BME280;24244;51.950;5.902;2023-04-07T07:26:17;101509.00;;;9.99;81.56
38466;BME280;24244;51.950;5.902;2023-04-07T07:28:44;101505.34;;;10.00;81.81
38466;BME280;24244;51.950;5.902;2023-04-07T07:31:11;101508.66;;;10.02;81.32
38466;BME280;24244;51.950;5.902;2023-04-07T07:33:43;101511.31;;;10.02;81.71
38466;BME280;24244;51.950;5.902;2023-04-07T07:36:21;101511.16;;;10.03;81.76
38466;BME280;24244;51.950;5.902;2023-04-07T07:38:50;101519.63;;;10.07;81.66
38466;BME280;24244;51.950;5.902;2023-04-07T07:41:17;101522.94;;;10.09;81.83
38466;BME280;24244;51.950;5.902;2023-04-07T07:43:45;101519.97;;;10.12;81.33
38466;BME280;24244;51.950;5.902;2023-04-07T07:46:12;101524.13;;;10.14;81.36
38466;BME280;24244;51.950;5.902;2023-04-07T07:48:38;101521.16;;;10.17;81.28
38466;BME280;24244;51.950;5.902;2023-04-07T07:51:05;101529.97;;;10.18;81.37
38466;BME280;24244;51.950;5.902;2023-04-07T07:53:33;101533.28;;;10.20;81.38
38466;BME280;24244;51.950;5.902;2023-04-07T07:56:01;101525.81;;;10.24;81.57
38466;BME280;24244;51.950;5.902;2023-04-07T07:58:28;101529.13;;;10.26;81.44
38466;BME280;24244;51.950;5.902;2023-04-07T08:00:55;101531.63;;;10.27;81.49
38466;BME280;24244;51.950;5.902;2023-04-07T08:03:22;101530.81;;;10.27;81.31
38466;BME280;24244;51.950;5.902;2023-04-07T08:05:50;101536.44;;;10.32;81.40
38466;BME280;24244;51.950;5.902;2023-04-07T08:08:18;101534.31;;;10.35;81.17
38466;BME280;24244;51.950;5.902;2023-04-07T08:10:50;101544.78;;;10.37;81.23
38466;BME280;24244;51.950;5.902;2023-04-07T08:13:23;101543.94;;;10.36;81.32
38466;BME280;24244;51.950;5.902;2023-04-07T08:15:51;101541.78;;;10.40;81.18
38466;BME280;24244;51.950;5.902;2023-04-07T08:18:21;101545.94;;;10.42;81.37
38466;BME280;24244;51.950;5.902;2023-04-07T08:20:48;101548.25;;;10.45;81.08
38466;BME280;24244;51.950;5.902;2023-04-07T08:23:15;101553.25;;;10.48;80.72
38466;BME280;24244;51.950;5.902;2023-04-07T08:25:43;101552.25;;;10.49;81.24
38466;BME280;24244;51.950;5.902;2023-04-07T08:28:10;101556.22;;;10.53;80.98
38466;BME280;24244;51.950;5.902;2023-04-07T08:30:40;101553.25;;;10.56;80.76
38466;BME280;24244;51.950;5.902;2023-04-07T08:33:07;101563.72;;;10.58;81.09
38466;BME280;24244;51.950;5.902;2023-04-07T08:35:35;101556.38;;;10.60;80.88
38466;BME280;24244;51.950;5.902;2023-04-07T08:38:03;101565.88;;;10.63;80.77
38466;BME280;24244;51.950;5.902;2023-04-07T08:40:33;101565.88;;;10.63;80.97
38466;BME280;24244;51.950;5.902;2023-04-07T08:43:08;101570.88;;;10.66;81.04
38466;BME280;24244;51.950;5.902;2023-04-07T08:45:42;101570.88;;;10.66;80.93
38466;BME280;24244;51.950;5.902;2023-04-07T08:48:15;101579.63;;;10.66;81.00
38466;BME280;24244;51.950;5.902;2023-04-07T08:50:44;101573.16;;;10.69;80.95
38466;BME280;24244;51.950;5.902;2023-04-07T08:53:18;101581.16;;;10.69;80.70
38466;BME280;24244;51.950;5.902;2023-04-07T08:55:47;101584.16;;;10.66;80.95
38466;BME280;24244;51.950;5.902;2023-04-07T08:58:14;101585.78;;;10.67;81.39
38466;BME280;24244;51.950;5.902;2023-04-07T09:00:44;101585.63;;;10.68;81.06
38466;BME280;24244;51.950;5.902;2023-04-07T09:03:12;101585.63;;;10.68;80.95
38466;BME280;24244;51.950;5.902;2023-04-07T09:05:39;101587.63;;;10.66;81.15
38466;BME280;24244;51.950;5.902;2023-04-07T09:08:08;101584.16;;;10.66;80.96
38466;BME280;24244;51.950;5.902;2023-04-07T09:10:35;101590.47;;;10.65;81.42
38466;BME280;24244;51.950;5.902;2023-04-07T09:13:04;101586.47;;;10.60;81.68
38466;BME280;24244;51.950;5.902;2023-04-07T09:15:32;101594.94;;;10.64;81.79
38466;BME280;24244;51.950;5.902;2023-04-07T09:18:04;101591.63;;;10.70;81.73
38466;BME280;24244;51.950;5.902;2023-04-07T09:20:53;101596.44;;;10.75;81.37
38466;BME280;24244;51.950;5.902;2023-04-07T09:23:29;101603.09;;;10.79;80.96
38466;BME280;24244;51.950;5.902;2023-04-07T09:26:19;101597.78;;;10.79;81.54
38466;BME280;24244;51.950;5.902;2023-04-07T09:28:52;101600.44;;;10.79;81.29
38466;BME280;24244;51.950;5.902;2023-04-07T09:31:23;101598.25;;;10.82;81.36
38466;BME280;24244;51.950;5.902;2023-04-07T09:34:25;101601.44;;;10.86;80.90
38466;BME280;24244;51.950;5.902;2023-04-07T09:36:53;101593.09;;;10.89;81.10
38466;BME280;24244;51.950;5.902;2023-04-07T09:39:50;101604.25;;;10.92;80.89
38466;BME280;24244;51.950;5.902;2023-04-07T09:42:20;101596.09;;;10.94;81.23
38466;BME280;24244;51.950;5.902;2023-04-07T09:44:51;101597.75;;;10.95;80.83
38466;BME280;24244;51.950;5.902;2023-04-07T09:47:25;101600.25;;;10.96;81.01
38466;BME280;24244;51.950;5.902;2023-04-07T09:49:54;101599.41;;;10.96;81.09
38466;BME280;24244;51.950;5.902;2023-04-07T09:52:47;101602.75;;;10.98;80.66
38466;BME280;24244;51.950;5.902;2023-04-07T09:55:15;101599.75;;;10.93;80.88
38466;BME280;24244;51.950;5.902;2023-04-07T09:57:44;101606.75;;;10.94;81.02
38466;BME280;24244;51.950;5.902;2023-04-07T10:00:12;101604.56;;;10.97;80.70
38466;BME280;24244;51.950;5.902;2023-04-07T10:02:43;101610.56;;;10.99;80.86
38466;BME280;24244;51.950;5.902;2023-04-07T10:05:12;101607.91;;;10.99;80.92
38466;BME280;24244;51.950;5.902;2023-04-07T10:07:45;101606.06;;;11.00;80.55
38466;BME280;24244;51.950;5.902;2023-04-07T10:10:13;101605.41;;;10.98;80.87
38466;BME280;24244;51.950;5.902;2023-04-07T10:12:44;101607.91;;;10.99;80.54
38466;BME280;24244;51.950;5.902;2023-04-07T10:15:13;101616.72;;;11.00;80.50
38466;BME280;24244;51.950;5.902;2023-04-07T10:17:46;101615.34;;;11.04;80.74
38466;BME280;24244;51.950;5.902;2023-04-07T10:20:24;101615.88;;;11.08;80.52
38466;BME280;24244;51.950;5.902;2023-04-07T10:23:03;101617.34;;;11.10;80.52
38466;BME280;24244;51.950;5.902;2023-04-07T10:25:37;101620.84;;;11.11;79.97
38466;BME280;24244;51.950;5.902;2023-04-07T10:28:23;101623.66;;;11.09;80.25
38466;BME280;24244;51.950;5.902;2023-04-07T10:30:52;101628.34;;;11.07;80.36
38466;BME280;24244;51.950;5.902;2023-04-07T10:33:43;101623.34;;;11.04;80.55
38466;BME280;24244;51.950;5.902;2023-04-07T10:36:13;101622.66;;;11.02;80.21
38466;BME280;24244;51.950;5.902;2023-04-07T10:39:19;101631.69;;;11.01;80.16
38466;BME280;24244;51.950;5.902;2023-04-07T10:41:48;101632.66;;;11.00;80.33
38466;BME280;24244;51.950;5.902;2023-04-07T10:48:24;101637.00;;;11.01;80.13
38466;BME280;24244;51.950;5.902;2023-04-07T10:54:22;101643.31;;;11.00;80.12
38466;BME280;24244;51.950;5.902;2023-04-07T10:57:08;101639.66;;;11.01;79.95
38466;BME280;24244;51.950;5.902;2023-04-07T11:00:15;101647.44;;;11.03;79.91
38466;BME280;24244;51.950;5.902;2023-04-07T11:02:51;101641.97;;;11.04;80.04
38466;BME280;24244;51.950;5.902;2023-04-07T11:05:22;101647.13;;;11.06;79.90
38466;BME280;24244;51.950;5.902;2023-04-07T11:07:54;101650.47;;;11.08;79.96
38466;BME280;24244;51.950;5.902;2023-04-07T11:10:28;101651.63;;;11.05;79.42
38466;BME280;24244;51.950;5.902;2023-04-07T11:13:15;101654.78;;;11.01;79.67
38466;BME280;24244;51.950;5.902;2023-04-07T11:16:01;101661.94;;;11.00;79.67
38466;BME280;24244;51.950;5.902;2023-04-07T11:18:39;101657.59;;;10.99;79.87
38466;BME280;24244;51.950;5.902;2023-04-07T11:21:09;101664.59;;;11.00;79.92
38466;BME280;24244;51.950;5.902;2023-04-07T11:23:45;101657.25;;;11.02;80.02
38466;BME280;24244;51.950;5.902;2023-04-07T11:26:18;101663.59;;;11.01;80.08
38466;BME280;24244;51.950;5.902;2023-04-07T11:28:51;101669.56;;;11.03;80.35
38466;BME280;24244;51.950;5.902;2023-04-07T11:31:22;101674.25;;;11.01;80.43
38466;BME280;24244;51.950;5.902;2023-04-07T11:33:53;101672.91;;;10.97;80.37
38466;BME280;24244;51.950;5.902;2023-04-07T11:36:28;101678.88;;;10.99;80.46
38466;BME280;24244;51.950;5.902;2023-04-07T11:39:01;101679.38;;;11.03;80.62
38466;BME280;24244;51.950;5.902;2023-04-07T11:41:45;101681.72;;;11.06;80.74
38466;BME280;24244;51.950;5.902;2023-04-07T11:44:27;101669.56;;;11.11;80.42
38466;BME280;24244;51.950;5.902;2023-04-07T11:46:55;101681.38;;;11.17;80.51
38466;BME280;24244;51.950;5.902;2023-04-07T11:49:43;101678.53;;;11.18;80.49
38466;BME280;24244;51.950;5.902;2023-04-07T11:52:11;101688.34;;;11.18;80.43
38466;BME280;24244;51.950;5.902;2023-04-07T11:54:43;101686.38;;;11.20;80.54
38466;BME280;24244;51.950;5.902;2023-04-07T11:57:22;101683.19;;;11.24;80.50
38466;BME280;24244;51.950;5.902;2023-04-07T11:59:49;101685.53;;;11.27;80.26
38466;BME280;24244;51.950;5.902;2023-04-07T12:02:32;101683.34;;;11.31;80.27
38466;BME280;24244;51.950;5.902;2023-04-07T12:05:02;101692.84;;;11.33;80.43
38466;BME280;24244;51.950;5.902;2023-04-07T12:07:29;101702.81;;;11.39;80.31
38466;BME280;24244;51.950;5.902;2023-04-07T12:10:17;101702.13;;;11.37;79.98
38466;BME280;24244;51.950;5.902;2023-04-07T12:12:45;101703.31;;;11.27;80.43
38466;BME280;24244;51.950;5.902;2023-04-07T12:15:12;101707.81;;;11.26;80.63
38466;BME280;24244;51.950;5.902;2023-04-07T12:17:44;101708.66;;;11.27;80.66
38466;BME280;24244;51.950;5.902;2023-04-07T12:20:13;101711.47;;;11.25;80.77
38466;BME280;24244;51.950;5.902;2023-04-07T12:22:42;101717.78;;;11.24;80.85
38466;BME280;24244;51.950;5.902;2023-04-07T12:25:11;101715.28;;;11.23;81.02
38466;BME280;24244;51.950;5.902;2023-04-07T12:27:37;101713.47;;;11.23;81.12
38466;BME280;24244;51.950;5.902;2023-04-07T12:30:10;101725.28;;;11.29;81.23
38466;BME280;24244;51.950;5.902;2023-04-07T12:32:37;101722.94;;;11.34;81.14
38466;BME280;24244;51.950;5.902;2023-04-07T12:35:04;101719.13;;;11.36;80.59
38466;BME280;24244;51.950;5.902;2023-04-07T12:37:32;101726.91;;;11.38;80.53
38466;BME280;24244;51.950;5.902;2023-04-07T12:39:59;101720.59;;;11.39;80.69
38466;BME280;24244;51.950;5.902;2023-04-07T12:42:28;101728.44;;;11.41;80.73
38466;BME280;24244;51.950;5.902;2023-04-07T12:44:55;101730.56;;;11.45;80.79
38466;BME280;24244;51.950;5.902;2023-04-07T12:47:22;101735.56;;;11.48;80.67
38466;BME280;24244;51.950;5.902;2023-04-07T12:49:49;101734.41;;;11.51;80.77
38466;BME280;24244;51.950;5.902;2023-04-07T12:52:17;101729.75;;;11.53;80.57
38466;BME280;24244;51.950;5.902;2023-04-07T12:54:45;101735.56;;;11.56;80.45
38466;BME280;24244;51.950;5.902;2023-04-07T12:57:12;101731.41;;;11.54;80.72
38466;BME280;24244;51.950;5.902;2023-04-07T12:59:40;101737.09;;;11.51;80.57
38466;BME280;24244;51.950;5.902;2023-04-07T13:02:08;101734.75;;;11.48;80.61
38466;BME280;24244;51.950;5.902;2023-04-07T13:04:35;101734.06;;;11.46;81.19
38466;BME280;24244;51.950;5.902;2023-04-07T13:07:06;101738.41;;;11.47;80.64
38466;BME280;24244;51.950;5.902;2023-04-07T13:09:34;101740.75;;;11.50;80.62
38466;BME280;24244;51.950;5.902;2023-04-07T13:12:01;101733.41;;;11.52;80.73
38466;BME280;24244;51.950;5.902;2023-04-07T13:14:28;101733.75;;;11.57;80.59
38466;BME280;24244;51.950;5.902;2023-04-07T13:16:57;101744.03;;;11.60;80.70